sensor_id;sensor_type;location;lat;lon;timestamp;P1;durP1;ratioP1;P2;durP2;ratioP2
28022;SDS011;67403;50.104;8.758;2023-04-29T00:01:46;5.90;;;3.30;;
28022;SDS011;67403;50.104;8.758;2023-04-29T00:04:13;4.97;;;3.10;;
28022;SDS011;67403;50.104;8.758;2023-04-29T00:06:40;4.28;;;3.10;;
28022;SDS011;67403;50.104;8.758;2023-04-29T00:09:07;4.60;;;2.70;;
28022;SDS011;67403;50.104;8.758;2023-04-29T00:11:34;4.72;;;3.20;;
28022;SDS011;67403;50.104;8.758;2023-04-29T00:14:01;5.90;;;3.13;;
28022;SDS011;67403;50.104;8.758;2023-04-29T00:16:28;4.55;;;3.03;;
28022;SDS011;67403;50.104;8.758;2023-04-29T00:18:56;9.70;;;3.63;;
28022;SDS011;67403;50.104;8.758;2023-04-29T00:21:23;7.40;;;2.95;;
28022;SDS011;67403;50.104;8.758;2023-04-29T00:23:51;4.07;;;2.95;;
28022;SDS011;67403;50.104;8.758;2023-04-29T00:26:18;4.55;;;2.80;;
28022;SDS011;67403;50.104;8.758;2023-04-29T00:28:45;3.78;;;2.53;;
28022;SDS011;67403;50.104;8.758;2023-04-29T00:31:12;4.32;;;2.80;;
28022;SDS011;67403;50.104;8.758;2023-04-29T00:33:39;3.40;;;2.60;;
28022;SDS011;67403;50.104;8.758;2023-04-29T00:36:07;2.50;;;2.10;;
28022;SDS011;67403;50.104;8.758;2023-04-29T00:38:34;4.10;;;2.45;;
28022;SDS011;67403;50.104;8.758;2023-04-29T00:41:01;4.82;;;2.60;;
28022;SDS011;67403;50.104;8.758;2023-04-29T00:43:28;4.18;;;2.60;;
28022;SDS011;67403;50.104;8.758;2023-04-29T00:45:55;2.65;;;2.28;;
28022;SDS011;67403;50.104;8.758;2023-04-29T00:48:22;4.38;;;2.90;;
28022;SDS011;67403;50.104;8.758;2023-04-29T00:50:49;3.50;;;2.85;;
28022;SDS011;67403;50.104;8.758;2023-04-29T00:53:17;3.83;;;2.83;;
28022;SDS011;67403;50.104;8.758;2023-04-29T00:55:44;3.38;;;2.63;;
28022;SDS011;67403;50.104;8.758;2023-04-29T00:58:13;5.05;;;2.55;;
28022;SDS011;67403;50.104;8.758;2023-04-29T01:00:40;2.47;;;2.28;;
28022;SDS011;67403;50.104;8.758;2023-04-29T01:03:08;5.07;;;2.88;;
28022;SDS011;67403;50.104;8.758;2023-04-29T01:05:35;6.35;;;2.95;;
28022;SDS011;67403;50.104;8.758;2023-04-29T01:08:06;3.13;;;2.50;;
28022;SDS011;67403;50.104;8.758;2023-04-29T01:10:47;5.67;;;3.03;;
28022;SDS011;67403;50.104;8.758;2023-04-29T01:13:20;4.95;;;3.42;;
28022;SDS011;67403;50.104;8.758;2023-04-29T01:15:56;4.45;;;2.97;;
28022;SDS011;67403;50.104;8.758;2023-04-29T01:18:28;6.53;;;2.80;;
28022;SDS011;67403;50.104;8.758;2023-04-29T01:20:58;5.40;;;2.90;;
28022;SDS011;67403;50.104;8.758;2023-04-29T01:23:27;4.28;;;3.10;;
28022;SDS011;67403;50.104;8.758;2023-04-29T01:25:54;3.40;;;3.00;;
28022;SDS011;67403;50.104;8.758;2023-04-29T01:28:25;4.22;;;2.97;;
28022;SDS011;67403;50.104;8.758;2023-04-29T01:31:04;4.25;;;3.22;;
28022;SDS011;67403;50.104;8.758;2023-04-29T01:33:39;3.97;;;3.25;;
28022;SDS011;67403;50.104;8.758;2023-04-29T01:36:11;3.67;;;2.92;;
28022;SDS011;67403;50.104;8.758;2023-04-29T01:38:50;3.65;;;2.97;;
28022;SDS011;67403;50.104;8.758;2023-04-29T01:41:26;4.35;;;2.58;;
28022;SDS011;67403;50.104;8.758;2023-04-29T01:44:00;3.83;;;3.33;;
28022;SDS011;67403;50.104;8.758;2023-04-29T01:46:28;5.05;;;3.25;;
28022;SDS011;67403;50.104;8.758;2023-04-29T01:48:56;3.85;;;2.60;;
28022;SDS011;67403;50.104;8.758;2023-04-29T01:51:23;4.03;;;3.08;;
28022;SDS011;67403;50.104;8.758;2023-04-29T01:53:52;3.38;;;2.78;;
28022;SDS011;67403;50.104;8.758;2023-04-29T01:56:19;3.00;;;2.47;;
28022;SDS011;67403;50.104;8.758;2023-04-29T01:58:45;2.63;;;2.30;;
28022;SDS011;67403;50.104;8.758;2023-04-29T02:01:12;4.75;;;2.72;;
28022;SDS011;67403;50.104;8.758;2023-04-29T02:03:39;3.60;;;2.75;;
28022;SDS011;67403;50.104;8.758;2023-04-29T02:06:06;3.80;;;2.58;;
28022;SDS011;67403;50.104;8.758;2023-04-29T02:08:33;2.95;;;2.47;;
28022;SDS011;67403;50.104;8.758;2023-04-29T02:11:01;3.35;;;2.25;;
28022;SDS011;67403;50.104;8.758;2023-04-29T02:13:28;3.42;;;2.65;;
28022;SDS011;67403;50.104;8.758;2023-04-29T02:15:56;3.28;;;2.45;;
28022;SDS011;67403;50.104;8.758;2023-04-29T02:18:23;4.18;;;2.80;;
28022;SDS011;67403;50.104;8.758;2023-04-29T02:20:50;4.18;;;2.95;;
28022;SDS011;67403;50.104;8.758;2023-04-29T02:23:18;2.90;;;2.25;;
28022;SDS011;67403;50.104;8.758;2023-04-29T02:25:45;3.17;;;2.88;;
28022;SDS011;67403;50.104;8.758;2023-04-29T02:28:13;4.47;;;2.53;;
28022;SDS011;67403;50.104;8.758;2023-04-29T02:30:40;4.38;;;2.20;;
28022;SDS011;67403;50.104;8.758;2023-04-29T02:33:07;3.47;;;2.45;;
28022;SDS011;67403;50.104;8.758;2023-04-29T02:35:34;3.47;;;2.35;;
28022;SDS011;67403;50.104;8.758;2023-04-29T02:38:01;2.88;;;2.45;;
28022;SDS011;67403;50.104;8.758;2023-04-29T02:40:28;3.17;;;2.55;;
28022;SDS011;67403;50.104;8.758;2023-04-29T02:42:55;3.22;;;2.47;;
28022;SDS011;67403;50.104;8.758;2023-04-29T02:45:23;3.55;;;2.75;;
28022;SDS011;67403;50.104;8.758;2023-04-29T02:47:50;3.30;;;2.45;;
28022;SDS011;67403;50.104;8.758;2023-04-29T02:50:17;5.80;;;2.60;;
28022;SDS011;67403;50.104;8.758;2023-04-29T02:52:44;2.65;;;2.40;;
28022;SDS011;67403;50.104;8.758;2023-04-29T02:55:11;5.05;;;2.80;;
28022;SDS011;67403;50.104;8.758;2023-04-29T02:57:38;3.20;;;2.90;;
28022;SDS011;67403;50.104;8.758;2023-04-29T03:00:06;4.13;;;2.72;;
28022;SDS011;67403;50.104;8.758;2023-04-29T03:02:36;2.92;;;2.42;;
28022;SDS011;67403;50.104;8.758;2023-04-29T03:05:03;3.63;;;2.63;;
28022;SDS011;67403;50.104;8.758;2023-04-29T03:07:31;3.45;;;2.72;;
28022;SDS011;67403;50.104;8.758;2023-04-29T03:09:58;5.18;;;3.60;;
28022;SDS011;67403;50.104;8.758;2023-04-29T03:12:25;3.72;;;2.67;;
28022;SDS011;67403;50.104;8.758;2023-04-29T03:14:52;5.05;;;3.33;;
28022;SDS011;67403;50.104;8.758;2023-04-29T03:17:19;4.90;;;3.75;;
28022;SDS011;67403;50.104;8.758;2023-04-29T03:19:48;6.57;;;3.63;;
28022;SDS011;67403;50.104;8.758;2023-04-29T03:22:15;5.75;;;3.75;;
28022;SDS011;67403;50.104;8.758;2023-04-29T03:24:42;4.60;;;3.63;;
28022;SDS011;67403;50.104;8.758;2023-04-29T03:27:09;6.95;;;4.80;;
28022;SDS011;67403;50.104;8.758;2023-04-29T03:29:36;7.18;;;5.07;;
28022;SDS011;67403;50.104;8.758;2023-04-29T03:34:39;6.85;;;4.70;;
28022;SDS011;67403;50.104;8.758;2023-04-29T03:37:07;8.80;;;5.25;;
28022;SDS011;67403;50.104;8.758;2023-04-29T03:39:34;8.45;;;5.53;;
28022;SDS011;67403;50.104;8.758;2023-04-29T03:42:00;9.15;;;5.75;;
28022;SDS011;67403;50.104;8.758;2023-04-29T03:44:28;10.32;;;6.05;;
28022;SDS011;67403;50.104;8.758;2023-04-29T03:46:55;10.65;;;6.45;;
28022;SDS011;67403;50.104;8.758;2023-04-29T03:49:22;9.05;;;6.03;;
28022;SDS011;67403;50.104;8.758;2023-04-29T03:51:49;10.35;;;6.13;;
28022;SDS011;67403;50.104;8.758;2023-04-29T03:54:18;9.43;;;5.72;;
28022;SDS011;67403;50.104;8.758;2023-04-29T03:56:45;9.63;;;5.80;;
28022;SDS011;67403;50.104;8.758;2023-04-29T03:59:12;9.82;;;5.80;;
28022;SDS011;67403;50.104;8.758;2023-04-29T04:01:39;9.73;;;6.10;;
28022;SDS011;67403;50.104;8.758;2023-04-29T04:04:06;10.23;;;6.07;;
28022;SDS011;67403;50.104;8.758;2023-04-29T04:06:33;8.48;;;6.05;;
28022;SDS011;67403;50.104;8.758;2023-04-29T04:09:00;10.75;;;5.63;;
28022;SDS011;67403;50.104;8.758;2023-04-29T04:11:28;9.55;;;5.80;;
28022;SDS011;67403;50.104;8.758;2023-04-29T04:13:55;12.32;;;5.70;;
28022;SDS011;67403;50.104;8.758;2023-04-29T04:16:22;8.77;;;5.43;;
28022;SDS011;67403;50.104;8.758;2023-04-29T04:18:48;11.90;;;6.93;;
28022;SDS011;67403;50.104;8.758;2023-04-29T04:21:15;11.63;;;7.05;;
28022;SDS011;67403;50.104;8.758;2023-04-29T04:23:42;13.20;;;7.05;;
28022;SDS011;67403;50.104;8.758;2023-04-29T04:26:09;12.80;;;7.00;;
28022;SDS011;67403;50.104;8.758;2023-04-29T04:28:37;10.48;;;6.60;;
28022;SDS011;67403;50.104;8.758;2023-04-29T04:31:04;10.07;;;6.57;;
28022;SDS011;67403;50.104;8.758;2023-04-29T04:33:32;11.23;;;6.97;;
28022;SDS011;67403;50.104;8.758;2023-04-29T04:35:59;14.00;;;7.35;;
28022;SDS011;67403;50.104;8.758;2023-04-29T04:38:26;14.38;;;7.47;;
28022;SDS011;67403;50.104;8.758;2023-04-29T04:40:53;11.98;;;6.95;;
28022;SDS011;67403;50.104;8.758;2023-04-29T04:43:20;13.32;;;7.93;;
28022;SDS011;67403;50.104;8.758;2023-04-29T04:45:48;16.33;;;8.07;;
28022;SDS011;67403;50.104;8.758;2023-04-29T04:48:15;11.90;;;7.65;;
28022;SDS011;67403;50.104;8.758;2023-04-29T04:50:42;15.88;;;8.20;;
28022;SDS011;67403;50.104;8.758;2023-04-29T04:53:09;14.63;;;7.53;;
28022;SDS011;67403;50.104;8.758;2023-04-29T04:55:36;14.63;;;7.97;;
28022;SDS011;67403;50.104;8.758;2023-04-29T04:58:03;13.93;;;8.25;;
28022;SDS011;67403;50.104;8.758;2023-04-29T05:00:29;14.98;;;8.20;;
28022;SDS011;67403;50.104;8.758;2023-04-29T05:02:58;13.82;;;8.30;;
28022;SDS011;67403;50.104;8.758;2023-04-29T05:05:24;14.18;;;7.78;;
28022;SDS011;67403;50.104;8.758;2023-04-29T05:07:51;15.77;;;7.63;;
28022;SDS011;67403;50.104;8.758;2023-04-29T05:10:18;14.77;;;7.65;;
28022;SDS011;67403;50.104;8.758;2023-04-29T05:12:50;19.38;;;8.85;;
28022;SDS011;67403;50.104;8.758;2023-04-29T05:15:17;14.73;;;8.15;;
28022;SDS011;67403;50.104;8.758;2023-04-29T05:17:44;12.40;;;7.03;;
28022;SDS011;67403;50.104;8.758;2023-04-29T05:20:12;15.02;;;8.82;;
28022;SDS011;67403;50.104;8.758;2023-04-29T05:22:39;13.75;;;8.40;;
28022;SDS011;67403;50.104;8.758;2023-04-29T05:25:06;16.08;;;8.00;;
28022;SDS011;67403;50.104;8.758;2023-04-29T05:27:34;16.33;;;8.60;;
28022;SDS011;67403;50.104;8.758;2023-04-29T05:30:00;16.58;;;8.95;;
28022;SDS011;67403;50.104;8.758;2023-04-29T05:32:27;18.02;;;9.18;;
28022;SDS011;67403;50.104;8.758;2023-04-29T05:34:54;18.15;;;8.32;;
28022;SDS011;67403;50.104;8.758;2023-04-29T05:37:22;15.32;;;7.95;;
28022;SDS011;67403;50.104;8.758;2023-04-29T05:39:54;16.88;;;7.53;;
28022;SDS011;67403;50.104;8.758;2023-04-29T05:42:21;11.85;;;7.00;;
28022;SDS011;67403;50.104;8.758;2023-04-29T05:44:49;13.52;;;6.93;;
28022;SDS011;67403;50.104;8.758;2023-04-29T05:47:16;13.30;;;7.38;;
28022;SDS011;67403;50.104;8.758;2023-04-29T05:49:43;14.65;;;6.95;;
28022;SDS011;67403;50.104;8.758;2023-04-29T05:52:09;10.60;;;5.95;;
28022;SDS011;67403;50.104;8.758;2023-04-29T05:54:38;10.35;;;5.40;;
28022;SDS011;67403;50.104;8.758;2023-04-29T05:57:05;12.05;;;6.00;;
28022;SDS011;67403;50.104;8.758;2023-04-29T05:59:32;9.18;;;4.93;;
28022;SDS011;67403;50.104;8.758;2023-04-29T06:01:59;9.82;;;4.90;;
28022;SDS011;67403;50.104;8.758;2023-04-29T06:04:27;9.07;;;4.55;;
28022;SDS011;67403;50.104;8.758;2023-04-29T06:06:54;10.45;;;4.38;;
28022;SDS011;67403;50.104;8.758;2023-04-29T06:09:22;6.82;;;3.85;;
28022;SDS011;67403;50.104;8.758;2023-04-29T06:11:51;10.38;;;4.78;;
28022;SDS011;67403;50.104;8.758;2023-04-29T06:14:18;7.20;;;4.43;;
28022;SDS011;67403;50.104;8.758;2023-04-29T06:16:45;9.30;;;4.63;;
28022;SDS011;67403;50.104;8.758;2023-04-29T06:19:13;9.52;;;4.80;;
28022;SDS011;67403;50.104;8.758;2023-04-29T06:21:40;7.90;;;4.90;;
28022;SDS011;67403;50.104;8.758;2023-04-29T06:24:07;8.82;;;4.38;;
28022;SDS011;67403;50.104;8.758;2023-04-29T06:26:33;9.00;;;4.35;;
28022;SDS011;67403;50.104;8.758;2023-04-29T06:29:02;9.40;;;5.20;;
28022;SDS011;67403;50.104;8.758;2023-04-29T06:31:29;7.28;;;4.38;;
28022;SDS011;67403;50.104;8.758;2023-04-29T06:33:55;12.07;;;5.32;;
28022;SDS011;67403;50.104;8.758;2023-04-29T06:36:22;9.93;;;5.28;;
28022;SDS011;67403;50.104;8.758;2023-04-29T06:38:49;8.05;;;4.47;;
28022;SDS011;67403;50.104;8.758;2023-04-29T06:41:16;10.85;;;4.68;;
28022;SDS011;67403;50.104;8.758;2023-04-29T06:43:43;9.32;;;5.22;;
28022;SDS011;67403;50.104;8.758;2023-04-29T06:46:11;7.90;;;4.18;;
28022;SDS011;67403;50.104;8.758;2023-04-29T06:48:38;9.05;;;4.95;;
28022;SDS011;67403;50.104;8.758;2023-04-29T06:51:05;8.73;;;4.20;;
28022;SDS011;67403;50.104;8.758;2023-04-29T06:53:32;8.70;;;5.20;;
28022;SDS011;67403;50.104;8.758;2023-04-29T06:55:59;10.75;;;5.03;;
28022;SDS011;67403;50.104;8.758;2023-04-29T06:58:26;8.50;;;4.70;;
28022;SDS011;67403;50.104;8.758;2023-04-29T07:00:53;8.98;;;5.32;;
28022;SDS011;67403;50.104;8.758;2023-04-29T07:03:41;7.50;;;4.70;;
28022;SDS011;67403;50.104;8.758;2023-04-29T07:06:28;8.65;;;4.90;;
28022;SDS011;67403;50.104;8.758;2023-04-29T07:08:55;10.48;;;4.30;;
28022;SDS011;67403;50.104;8.758;2023-04-29T07:11:22;5.78;;;3.58;;
28022;SDS011;67403;50.104;8.758;2023-04-29T07:13:51;5.22;;;3.10;;
28022;SDS011;67403;50.104;8.758;2023-04-29T07:16:18;4.60;;;2.92;;
28022;SDS011;67403;50.104;8.758;2023-04-29T07:18:47;6.00;;;3.10;;
28022;SDS011;67403;50.104;8.758;2023-04-29T07:21:14;8.07;;;4.20;;
28022;SDS011;67403;50.104;8.758;2023-04-29T07:23:41;5.38;;;3.42;;
28022;SDS011;67403;50.104;8.758;2023-04-29T07:26:09;8.02;;;3.60;;
28022;SDS011;67403;50.104;8.758;2023-04-29T07:28:37;7.55;;;4.00;;
28022;SDS011;67403;50.104;8.758;2023-04-29T07:31:04;5.88;;;3.75;;
28022;SDS011;67403;50.104;8.758;2023-04-29T07:33:31;7.82;;;4.10;;
28022;SDS011;67403;50.104;8.758;2023-04-29T07:36:00;9.23;;;5.03;;
28022;SDS011;67403;50.104;8.758;2023-04-29T07:38:27;9.63;;;3.97;;
28022;SDS011;67403;50.104;8.758;2023-04-29T07:40:54;7.63;;;3.95;;
28022;SDS011;67403;50.104;8.758;2023-04-29T07:43:22;7.82;;;3.85;;
28022;SDS011;67403;50.104;8.758;2023-04-29T07:45:48;6.68;;;4.20;;
28022;SDS011;67403;50.104;8.758;2023-04-29T07:48:15;8.70;;;4.70;;
28022;SDS011;67403;50.104;8.758;2023-04-29T07:50:42;8.20;;;4.28;;
28022;SDS011;67403;50.104;8.758;2023-04-29T07:53:11;13.55;;;5.03;;
28022;SDS011;67403;50.104;8.758;2023-04-29T07:55:37;11.18;;;4.53;;
28022;SDS011;67403;50.104;8.758;2023-04-29T07:58:04;8.57;;;4.22;;
28022;SDS011;67403;50.104;8.758;2023-04-29T08:00:31;9.63;;;4.97;;
28022;SDS011;67403;50.104;8.758;2023-04-29T08:02:58;9.18;;;5.15;;
28022;SDS011;67403;50.104;8.758;2023-04-29T08:05:25;5.72;;;3.78;;
28022;SDS011;67403;50.104;8.758;2023-04-29T08:07:54;8.20;;;4.63;;
28022;SDS011;67403;50.104;8.758;2023-04-29T08:10:22;6.95;;;4.40;;
28022;SDS011;67403;50.104;8.758;2023-04-29T08:12:50;8.48;;;4.60;;
28022;SDS011;67403;50.104;8.758;2023-04-29T08:15:17;9.60;;;4.50;;
28022;SDS011;67403;50.104;8.758;2023-04-29T08:17:44;9.43;;;4.82;;
28022;SDS011;67403;50.104;8.758;2023-04-29T08:20:11;7.68;;;3.92;;
28022;SDS011;67403;50.104;8.758;2023-04-29T08:22:39;5.80;;;3.65;;
28022;SDS011;67403;50.104;8.758;2023-04-29T08:25:07;6.50;;;4.07;;
28022;SDS011;67403;50.104;8.758;2023-04-29T08:27:35;5.88;;;3.92;;
28022;SDS011;67403;50.104;8.758;2023-04-29T08:30:03;6.78;;;3.72;;
28022;SDS011;67403;50.104;8.758;2023-04-29T08:32:30;8.32;;;4.80;;
28022;SDS011;67403;50.104;8.758;2023-04-29T08:34:59;7.55;;;3.58;;
28022;SDS011;67403;50.104;8.758;2023-04-29T08:37:26;6.28;;;3.75;;
28022;SDS011;67403;50.104;8.758;2023-04-29T08:39:53;9.25;;;3.80;;
28022;SDS011;67403;50.104;8.758;2023-04-29T08:42:20;6.78;;;4.03;;
28022;SDS011;67403;50.104;8.758;2023-04-29T08:45:05;5.65;;;3.60;;
28022;SDS011;67403;50.104;8.758;2023-04-29T08:47:33;5.65;;;3.42;;
28022;SDS011;67403;50.104;8.758;2023-04-29T08:50:01;7.30;;;3.60;;
28022;SDS011;67403;50.104;8.758;2023-04-29T08:52:29;5.97;;;3.40;;
28022;SDS011;67403;50.104;8.758;2023-04-29T08:54:56;7.63;;;4.30;;
28022;SDS011;67403;50.104;8.758;2023-04-29T08:57:24;7.90;;;3.85;;
28022;SDS011;67403;50.104;8.758;2023-04-29T08:59:53;6.80;;;3.90;;
28022;SDS011;67403;50.104;8.758;2023-04-29T09:02:21;7.97;;;4.70;;
28022;SDS011;67403;50.104;8.758;2023-04-29T09:04:52;7.40;;;4.32;;
28022;SDS011;67403;50.104;8.758;2023-04-29T09:07:22;7.78;;;4.13;;
28022;SDS011;67403;50.104;8.758;2023-04-29T09:09:50;9.75;;;5.32;;
28022;SDS011;67403;50.104;8.758;2023-04-29T09:12:18;8.38;;;4.45;;
28022;SDS011;67403;50.104;8.758;2023-04-29T09:14:46;9.85;;;4.93;;
28022;SDS011;67403;50.104;8.758;2023-04-29T09:17:13;9.57;;;4.28;;
28022;SDS011;67403;50.104;8.758;2023-04-29T09:19:42;5.88;;;3.70;;
28022;SDS011;67403;50.104;8.758;2023-04-29T09:22:09;8.50;;;4.43;;
28022;SDS011;67403;50.104;8.758;2023-04-29T09:24:36;6.65;;;3.53;;
28022;SDS011;67403;50.104;8.758;2023-04-29T09:27:04;8.52;;;4.72;;
28022;SDS011;67403;50.104;8.758;2023-04-29T09:29:31;9.63;;;4.28;;
28022;SDS011;67403;50.104;8.758;2023-04-29T09:31:59;8.73;;;4.63;;
28022;SDS011;67403;50.104;8.758;2023-04-29T09:34:29;5.68;;;4.03;;
28022;SDS011;67403;50.104;8.758;2023-04-29T09:36:58;7.28;;;3.75;;
28022;SDS011;67403;50.104;8.758;2023-04-29T09:39:26;6.13;;;3.50;;
28022;SDS011;67403;50.104;8.758;2023-04-29T09:42:02;7.07;;;3.78;;
28022;SDS011;67403;50.104;8.758;2023-04-29T09:44:31;7.07;;;4.22;;
28022;SDS011;67403;50.104;8.758;2023-04-29T09:47:00;10.90;;;4.32;;
28022;SDS011;67403;50.104;8.758;2023-04-29T09:49:29;6.88;;;3.60;;
28022;SDS011;67403;50.104;8.758;2023-04-29T09:51:59;6.25;;;3.83;;
28022;SDS011;67403;50.104;8.758;2023-04-29T09:54:29;6.00;;;3.70;;
28022;SDS011;67403;50.104;8.758;2023-04-29T09:56:56;7.20;;;3.67;;
28022;SDS011;67403;50.104;8.758;2023-04-29T09:59:25;6.28;;;3.67;;
28022;SDS011;67403;50.104;8.758;2023-04-29T10:01:52;5.75;;;3.53;;
28022;SDS011;67403;50.104;8.758;2023-04-29T10:04:21;5.90;;;3.63;;
28022;SDS011;67403;50.104;8.758;2023-04-29T10:06:49;8.05;;;4.85;;
28022;SDS011;67403;50.104;8.758;2023-04-29T10:09:18;6.05;;;4.03;;
28022;SDS011;67403;50.104;8.758;2023-04-29T10:11:47;6.13;;;3.63;;
28022;SDS011;67403;50.104;8.758;2023-04-29T10:14:15;7.93;;;3.90;;
28022;SDS011;67403;50.104;8.758;2023-04-29T10:16:47;6.47;;;4.07;;
28022;SDS011;67403;50.104;8.758;2023-04-29T10:19:18;6.07;;;3.72;;
28022;SDS011;67403;50.104;8.758;2023-04-29T10:21:50;6.45;;;3.70;;
28022;SDS011;67403;50.104;8.758;2023-04-29T10:24:21;7.25;;;3.85;;
28022;SDS011;67403;50.104;8.758;2023-04-29T10:26:51;5.82;;;3.42;;
28022;SDS011;67403;50.104;8.758;2023-04-29T10:29:20;5.23;;;3.67;;
28022;SDS011;67403;50.104;8.758;2023-04-29T10:31:48;5.18;;;3.30;;
28022;SDS011;67403;50.104;8.758;2023-04-29T10:34:16;6.13;;;3.63;;
28022;SDS011;67403;50.104;8.758;2023-04-29T10:36:44;5.80;;;3.35;;
28022;SDS011;67403;50.104;8.758;2023-04-29T10:39:15;5.97;;;2.95;;
28022;SDS011;67403;50.104;8.758;2023-04-29T10:41:51;4.93;;;3.20;;
28022;SDS011;67403;50.104;8.758;2023-04-29T10:44:19;4.70;;;2.95;;
28022;SDS011;67403;50.104;8.758;2023-04-29T10:46:47;6.05;;;3.40;;
28022;SDS011;67403;50.104;8.758;2023-04-29T10:49:14;5.32;;;3.03;;
28022;SDS011;67403;50.104;8.758;2023-04-29T10:51:41;6.60;;;3.58;;
28022;SDS011;67403;50.104;8.758;2023-04-29T10:54:09;4.90;;;3.05;;
28022;SDS011;67403;50.104;8.758;2023-04-29T10:56:47;5.78;;;3.58;;
28022;SDS011;67403;50.104;8.758;2023-04-29T10:59:15;3.90;;;2.90;;
28022;SDS011;67403;50.104;8.758;2023-04-29T11:01:45;3.67;;;2.80;;
28022;SDS011;67403;50.104;8.758;2023-04-29T11:04:14;5.18;;;3.42;;
28022;SDS011;67403;50.104;8.758;2023-04-29T11:06:43;3.95;;;2.50;;
28022;SDS011;67403;50.104;8.758;2023-04-29T11:09:12;3.10;;;2.53;;
28022;SDS011;67403;50.104;8.758;2023-04-29T11:12:01;3.50;;;2.40;;
28022;SDS011;67403;50.104;8.758;2023-04-29T11:14:30;3.55;;;2.28;;
28022;SDS011;67403;50.104;8.758;2023-04-29T11:17:01;3.10;;;2.10;;
28022;SDS011;67403;50.104;8.758;2023-04-29T11:19:30;2.90;;;2.47;;
28022;SDS011;67403;50.104;8.758;2023-04-29T11:22:07;3.13;;;2.38;;
28022;SDS011;67403;50.104;8.758;2023-04-29T11:24:48;3.05;;;2.30;;
28022;SDS011;67403;50.104;8.758;2023-04-29T11:27:18;2.97;;;2.17;;
28022;SDS011;67403;50.104;8.758;2023-04-29T11:29:48;4.03;;;2.75;;
28022;SDS011;67403;50.104;8.758;2023-04-29T11:32:19;3.85;;;2.65;;
28022;SDS011;67403;50.104;8.758;2023-04-29T11:34:46;2.95;;;2.40;;
28022;SDS011;67403;50.104;8.758;2023-04-29T11:37:18;5.18;;;3.08;;
28022;SDS011;67403;50.104;8.758;2023-04-29T11:39:49;4.03;;;2.90;;
28022;SDS011;67403;50.104;8.758;2023-04-29T11:42:21;4.38;;;3.17;;
28022;SDS011;67403;50.104;8.758;2023-04-29T11:44:50;5.25;;;2.90;;
28022;SDS011;67403;50.104;8.758;2023-04-29T11:47:18;3.20;;;2.85;;
28022;SDS011;67403;50.104;8.758;2023-04-29T11:49:45;3.35;;;2.42;;
28022;SDS011;67403;50.104;8.758;2023-04-29T11:52:12;3.50;;;2.40;;
28022;SDS011;67403;50.104;8.758;2023-04-29T11:54:39;3.10;;;2.20;;
28022;SDS011;67403;50.104;8.758;2023-04-29T11:57:09;4.03;;;2.30;;
28022;SDS011;67403;50.104;8.758;2023-04-29T11:59:37;3.78;;;2.70;;
28022;SDS011;67403;50.104;8.758;2023-04-29T12:02:10;7.38;;;3.90;;
28022;SDS011;67403;50.104;8.758;2023-04-29T12:04:43;3.13;;;2.33;;
28022;SDS011;67403;50.104;8.758;2023-04-29T12:07:11;4.65;;;3.00;;
28022;SDS011;67403;50.104;8.758;2023-04-29T12:09:43;2.80;;;1.90;;
28022;SDS011;67403;50.104;8.758;2023-04-29T12:12:10;3.17;;;2.03;;
28022;SDS011;67403;50.104;8.758;2023-04-29T12:14:41;5.38;;;3.28;;
28022;SDS011;67403;50.104;8.758;2023-04-29T12:17:09;4.35;;;2.60;;
28022;SDS011;67403;50.104;8.758;2023-04-29T12:19:36;4.28;;;2.75;;
28022;SDS011;67403;50.104;8.758;2023-04-29T12:22:05;3.33;;;2.30;;
28022;SDS011;67403;50.104;8.758;2023-04-29T12:24:33;2.63;;;2.05;;
28022;SDS011;67403;50.104;8.758;2023-04-29T12:27:01;4.25;;;2.72;;
28022;SDS011;67403;50.104;8.758;2023-04-29T12:29:30;2.55;;;2.25;;
28022;SDS011;67403;50.104;8.758;2023-04-29T12:31:58;4.65;;;2.97;;
28022;SDS011;67403;50.104;8.758;2023-04-29T12:34:25;5.50;;;3.58;;
28022;SDS011;67403;50.104;8.758;2023-04-29T12:36:53;7.57;;;5.13;;
28022;SDS011;67403;50.104;8.758;2023-04-29T12:39:22;5.63;;;3.42;;
28022;SDS011;67403;50.104;8.758;2023-04-29T12:41:49;7.05;;;4.70;;
28022;SDS011;67403;50.104;8.758;2023-04-29T12:44:20;6.28;;;3.80;;
28022;SDS011;67403;50.104;8.758;2023-04-29T12:46:47;6.32;;;4.38;;
28022;SDS011;67403;50.104;8.758;2023-04-29T12:49:15;5.00;;;3.22;;
28022;SDS011;67403;50.104;8.758;2023-04-29T12:51:44;3.15;;;2.47;;
28022;SDS011;67403;50.104;8.758;2023-04-29T12:54:11;5.57;;;2.45;;
28022;SDS011;67403;50.104;8.758;2023-04-29T12:56:38;3.17;;;2.33;;
28022;SDS011;67403;50.104;8.758;2023-04-29T12:59:05;4.03;;;2.25;;
28022;SDS011;67403;50.104;8.758;2023-04-29T13:01:33;4.70;;;3.03;;
28022;SDS011;67403;50.104;8.758;2023-04-29T13:04:00;6.03;;;3.63;;
28022;SDS011;67403;50.104;8.758;2023-04-29T13:06:28;4.80;;;2.75;;
28022;SDS011;67403;50.104;8.758;2023-04-29T13:08:55;3.65;;;2.55;;
28022;SDS011;67403;50.104;8.758;2023-04-29T13:11:22;5.95;;;3.08;;
28022;SDS011;67403;50.104;8.758;2023-04-29T13:13:49;4.55;;;3.13;;
28022;SDS011;67403;50.104;8.758;2023-04-29T13:16:16;6.15;;;3.45;;
28022;SDS011;67403;50.104;8.758;2023-04-29T13:18:43;6.50;;;3.88;;
28022;SDS011;67403;50.104;8.758;2023-04-29T13:21:10;6.97;;;4.70;;
28022;SDS011;67403;50.104;8.758;2023-04-29T13:23:38;5.47;;;2.97;;
28022;SDS011;67403;50.104;8.758;2023-04-29T13:26:05;5.05;;;3.67;;
28022;SDS011;67403;50.104;8.758;2023-04-29T13:28:33;6.00;;;3.13;;
28022;SDS011;67403;50.104;8.758;2023-04-29T13:31:00;4.60;;;3.10;;
28022;SDS011;67403;50.104;8.758;2023-04-29T13:33:26;5.93;;;3.38;;
28022;SDS011;67403;50.104;8.758;2023-04-29T13:35:53;6.25;;;3.38;;
28022;SDS011;67403;50.104;8.758;2023-04-29T13:38:20;7.57;;;4.07;;
28022;SDS011;67403;50.104;8.758;2023-04-29T13:40:48;4.50;;;3.08;;
28022;SDS011;67403;50.104;8.758;2023-04-29T13:43:16;5.68;;;3.55;;
28022;SDS011;67403;50.104;8.758;2023-04-29T13:45:43;5.45;;;3.20;;
28022;SDS011;67403;50.104;8.758;2023-04-29T13:48:09;3.92;;;2.47;;
28022;SDS011;67403;50.104;8.758;2023-04-29T13:50:36;4.47;;;2.88;;
28022;SDS011;67403;50.104;8.758;2023-04-29T13:53:05;4.90;;;3.10;;
28022;SDS011;67403;50.104;8.758;2023-04-29T13:55:32;4.40;;;2.75;;
28022;SDS011;67403;50.104;8.758;2023-04-29T13:58:01;5.25;;;3.08;;
28022;SDS011;67403;50.104;8.758;2023-04-29T14:00:28;4.88;;;2.53;;
28022;SDS011;67403;50.104;8.758;2023-04-29T14:02:55;3.17;;;2.13;;
28022;SDS011;67403;50.104;8.758;2023-04-29T14:05:21;4.38;;;2.90;;
28022;SDS011;67403;50.104;8.758;2023-04-29T14:07:48;3.40;;;2.83;;
28022;SDS011;67403;50.104;8.758;2023-04-29T14:10:18;3.58;;;2.53;;
28022;SDS011;67403;50.104;8.758;2023-04-29T14:12:45;7.32;;;3.30;;
28022;SDS011;67403;50.104;8.758;2023-04-29T14:15:14;5.55;;;3.40;;
28022;SDS011;67403;50.104;8.758;2023-04-29T14:17:41;5.07;;;3.47;;
28022;SDS011;67403;50.104;8.758;2023-04-29T14:20:08;4.78;;;3.08;;
28022;SDS011;67403;50.104;8.758;2023-04-29T14:22:35;4.53;;;3.00;;
28022;SDS011;67403;50.104;8.758;2023-04-29T14:25:02;3.90;;;3.45;;
28022;SDS011;67403;50.104;8.758;2023-04-29T14:27:29;4.78;;;3.55;;
28022;SDS011;67403;50.104;8.758;2023-04-29T14:29:56;4.45;;;3.70;;
28022;SDS011;67403;50.104;8.758;2023-04-29T14:32:24;5.60;;;3.47;;
28022;SDS011;67403;50.104;8.758;2023-04-29T14:34:51;5.18;;;3.90;;
28022;SDS011;67403;50.104;8.758;2023-04-29T14:37:18;9.13;;;5.63;;
28022;SDS011;67403;50.104;8.758;2023-04-29T14:39:45;6.63;;;3.65;;
28022;SDS011;67403;50.104;8.758;2023-04-29T14:42:12;5.20;;;3.30;;
28022;SDS011;67403;50.104;8.758;2023-04-29T14:44:39;11.15;;;7.45;;
28022;SDS011;67403;50.104;8.758;2023-04-29T14:47:06;6.88;;;4.65;;
28022;SDS011;67403;50.104;8.758;2023-04-29T14:49:35;12.00;;;5.75;;
28022;SDS011;67403;50.104;8.758;2023-04-29T14:52:01;8.32;;;5.97;;
28022;SDS011;67403;50.104;8.758;2023-04-29T14:54:28;8.95;;;5.55;;